Time;durP1;ratioP1;P1;durP2;ratioP2;P2;SDS_P1;SDS_P2;PMS_P1;PMS_P2;Temp;Humidity;BMP_temperature;BMP_pressure;BME280_temperature;BME280_humidity;BME280_pressure;Samples;Min_cycle;Max_cycle;Signal;HPM_P1;HPM_P2
2022/03/04 00:00:28;;;;;;;18.63;9.48;;;-2.10;80.60;;;;;;4992848;28;20039;-87
2022/03/04 00:02:54;;;;;;;19.45;10.18;;;-2.10;79.90;;;;;;4986677;28;20062;-88
2022/03/04 00:05:20;;;;;;;25.17;11.30;;;-2.00;79.60;;;;;;4989640;28;20032;-89
2022/03/04 00:07:46;;;;;;;24.92;11.18;;;-2.20;80.00;;;;;;4987912;28;20104;-87
2022/03/04 00:10:11;;;;;;;20.20;10.63;;;-2.10;79.90;;;;;;4985884;28;20037;-87
2022/03/04 00:12:37;;;;;;;19.08;10.38;;;-2.30;82.00;;;;;;4985567;28;20395;-86
2022/03/04 00:15:03;;;;;;;24.42;10.10;;;-2.50;81.90;;;;;;4970174;28;20080;-87
2022/03/04 00:17:29;;;;;;;21.65;10.45;;;-2.70;84.00;;;;;;4987173;28;20366;-87
2022/03/04 00:19:55;;;;;;;24.27;10.07;;;-2.60;83.00;;;;;;4987287;28;20086;-88
2022/03/04 00:22:21;;;;;;;29.92;11.77;;;-2.70;83.50;;;;;;4988936;28;20038;-87
2022/03/04 00:24:47;;;;;;;21.27;10.50;;;-2.70;84.60;;;;;;4987664;28;20109;-87
2022/03/04 00:27:13;;;;;;;23.48;9.98;;;-2.50;83.90;;;;;;4987012;28;20156;-84
2022/03/04 00:29:38;;;;;;;28.25;10.95;;;-2.50;82.60;;;;;;4988408;28;20199;-88
2022/03/04 00:32:04;;;;;;;26.13;10.98;;;-2.50;82.50;;;;;;4983543;28;20038;-87
2022/03/04 00:34:30;;;;;;;22.17;10.25;;;-2.50;84.10;;;;;;4990961;28;20030;-88
2022/03/04 00:36:55;;;;;;;25.38;10.38;;;-2.40;83.40;;;;;;4992522;28;20031;-89
2022/03/04 00:39:23;;;;;;;17.65;9.82;;;-2.50;82.80;;;;;;4991270;28;20774;-88
2022/03/04 00:41:48;;;;;;;24.73;10.50;;;-2.60;84.30;;;;;;4987708;28;20034;-87
2022/03/04 00:44:14;;;;;;;22.98;9.93;;;-2.70;84.40;;;;;;4992165;28;20030;-88
2022/03/04 00:46:40;;;;;;;22.55;10.40;;;-2.60;84.60;;;;;;4988422;28;20116;-89
2022/03/04 00:49:06;;;;;;;25.45;9.93;;;-2.60;83.90;;;;;;4992158;28;20138;-88
2022/03/04 00:51:32;;;;;;;21.05;9.75;;;-2.50;83.60;;;;;;4986536;28;20127;-87
2022/03/04 00:53:58;;;;;;;23.83;10.07;;;-2.70;84.90;;;;;;4992188;28;20181;-86
2022/03/04 00:56:24;;;;;;;20.52;9.77;;;-2.70;85.50;;;;;;5007700;28;20636;-86
2022/03/04 00:58:49;;;;;;;25.73;10.90;;;-2.70;85.70;;;;;;5006988;28;20486;-87
2022/03/04 01:01:16;;;;;;;23.65;11.75;;;-2.80;86.70;;;;;;4982551;28;20324;-89
2022/03/04 01:03:42;;;;;;;23.40;11.05;;;-3.10;88.30;;;;;;4969659;28;20043;-86
2022/03/04 01:06:08;;;;;;;21.58;10.23;;;-3.20;89.60;;;;;;4972288;28;20042;-88
2022/03/04 01:08:34;;;;;;;23.08;9.90;;;-3.00;88.30;;;;;;4971559;28;20026;-87
2022/03/04 01:11:00;;;;;;;26.80;12.10;;;-2.80;86.80;;;;;;4971613;28;20027;-89
2022/03/04 01:13:26;;;;;;;23.42;10.30;;;-2.70;86.30;;;;;;4967698;28;20027;-87
2022/03/04 01:15:51;;;;;;;20.38;9.77;;;-2.70;85.00;;;;;;4971124;28;20449;-89
2022/03/04 01:18:17;;;;;;;24.55;10.45;;;-2.80;85.30;;;;;;4972530;28;20676;-85
2022/03/04 01:20:43;;;;;;;22.25;10.35;;;-3.00;89.70;;;;;;4972461;28;20035;-86
2022/03/04 01:23:09;;;;;;;22.17;9.85;;;-3.00;89.50;;;;;;4967937;28;20085;-88
2022/03/04 01:25:35;;;;;;;24.45;11.38;;;-2.90;88.40;;;;;;4970370;28;20039;-88
2022/03/04 01:28:01;;;;;;;25.60;11.63;;;-2.90;88.70;;;;;;4968953;28;20434;-90
2022/03/04 01:30:27;;;;;;;27.98;11.63;;;-2.90;87.00;;;;;;4970907;28;20066;-86
2022/03/04 01:32:52;;;;;;;23.33;10.90;;;-2.90;86.00;;;;;;4988532;28;20077;-88
2022/03/04 01:35:18;;;;;;;18.70;9.57;;;-2.90;85.90;;;;;;4990358;28;20041;-88
2022/03/04 01:37:44;;;;;;;20.45;9.18;;;-2.90;85.70;;;;;;4989020;28;20438;-89
2022/03/04 01:40:11;;;;;;;18.83;10.05;;;-2.90;86.70;;;;;;4988095;28;20370;-87
2022/03/04 01:42:37;;;;;;;22.33;10.20;;;-3.00;87.90;;;;;;4990317;28;20224;-88
2022/03/04 01:45:06;;;;;;;21.67;9.98;;;-3.10;88.20;;;;;;4989267;28;20092;-88
2022/03/04 01:47:32;;;;;;;24.42;9.50;;;-3.20;88.60;;;;;;5006582;28;20041;-86
2022/03/04 01:49:58;;;;;;;28.25;12.90;;;-3.20;89.20;;;;;;4989878;28;20470;-84
2022/03/04 01:52:24;;;;;;;20.65;10.10;;;-3.10;87.50;;;;;;4989447;28;20038;-87
2022/03/04 01:54:50;;;;;;;22.70;10.02;;;-3.00;86.70;;;;;;4991092;28;20031;-86
2022/03/04 01:57:15;;;;;;;24.23;11.32;;;-3.00;85.90;;;;;;4989734;28;20237;-85
2022/03/04 01:59:41;;;;;;;17.75;9.00;;;-2.90;85.70;;;;;;4990654;28;20045;-87
2022/03/04 02:02:07;;;;;;;29.48;10.65;;;-3.10;85.70;;;;;;4990012;28;20038;-87
2022/03/04 02:04:34;;;;;;;27.42;11.63;;;-3.20;86.60;;;;;;4989493;28;20489;-85
2022/03/04 02:07:00;;;;;;;21.98;10.40;;;-3.20;87.00;;;;;;4990995;28;20034;-83
2022/03/04 02:09:26;;;;;;;20.20;10.38;;;-3.30;88.50;;;;;;4980766;28;20485;-84
2022/03/04 02:11:51;;;;;;;23.13;10.27;;;-3.40;89.10;;;;;;4989472;28;20045;-90
2022/03/04 02:14:17;;;;;;;26.38;11.27;;;-3.50;89.80;;;;;;4991084;28;20035;-86
2022/03/04 02:16:53;;;;;;;29.63;10.73;;;-3.40;89.00;;;;;;4988914;28;20031;-89
2022/03/04 02:19:20;;;;;;;21.83;10.70;;;-3.50;88.90;;;;;;4990832;28;20030;-88
2022/03/04 02:22:00;;;;;;;26.77;10.93;;;-3.50;90.00;;;;;;4983619;28;20426;-85
2022/03/04 02:24:28;;;;;;;23.92;11.32;;;-3.60;90.70;;;;;;4997923;28;20078;-87
2022/03/04 02:26:56;;;;;;;43.22;11.13;;;-3.50;90.00;;;;;;4990352;28;20504;-89
2022/03/04 02:29:23;;;;;;;22.90;10.68;;;-3.60;90.10;;;;;;4990298;28;20125;-88
2022/03/04 02:31:50;;;;;;;23.77;10.50;;;-3.60;90.80;;;;;;4999352;28;20037;-87
2022/03/04 02:34:16;;;;;;;22.77;10.38;;;-3.60;90.00;;;;;;4991574;28;20019;-90
2022/03/04 02:36:42;;;;;;;24.58;12.52;;;-3.60;90.30;;;;;;4971681;28;20035;-85
2022/03/04 02:39:09;;;;;;;28.15;13.07;;;-3.60;90.80;;;;;;4991146;28;20249;-89
2022/03/04 02:41:35;;;;;;;25.17;12.63;;;-3.50;90.50;;;;;;5012453;28;20064;-88
2022/03/04 02:44:02;;;;;;;26.52;11.75;;;-3.60;90.80;;;;;;5001718;28;20026;-88
2022/03/04 02:46:28;;;;;;;27.10;13.07;;;-3.60;89.30;;;;;;4992872;28;20034;-88
2022/03/04 02:48:53;;;;;;;25.13;11.27;;;-3.70;90.40;;;;;;4992803;28;20103;-87
2022/03/04 02:51:19;;;;;;;22.33;10.18;;;-3.70;91.30;;;;;;4994052;28;20030;-88
2022/03/04 02:53:45;;;;;;;29.02;11.93;;;-3.50;90.10;;;;;;4997140;28;20350;-88
2022/03/04 02:56:10;;;;;;;24.33;10.70;;;-3.60;90.10;;;;;;5009322;28;20026;-88
2022/03/04 02:58:36;;;;;;;20.63;10.15;;;-3.40;89.50;;;;;;4993143;28;20397;-87
2022/03/04 03:01:02;;;;;;;28.17;10.30;;;-3.30;88.00;;;;;;4997123;28;20125;-90
2022/03/04 03:03:27;;;;;;;20.75;10.25;;;-3.40;88.00;;;;;;4991423;28;20062;-87
2022/03/04 03:05:53;;;;;;;25.63;9.57;;;-3.40;88.10;;;;;;5001465;28;20034;-86
2022/03/04 03:08:19;;;;;;;19.63;8.13;;;-3.40;88.00;;;;;;4993783;28;20553;-86
2022/03/04 03:10:44;;;;;;;25.17;10.48;;;-3.50;88.90;;;;;;4994302;28;20057;-89
2022/03/04 03:13:10;;;;;;;22.27;10.25;;;-3.10;88.00;;;;;;4993341;28;20056;-88
2022/03/04 03:15:36;;;;;;;22.65;12.18;;;-3.20;86.00;;;;;;4995521;28;20541;-87
2022/03/04 03:18:02;;;;;;;19.40;9.75;;;-3.10;87.50;;;;;;4998985;28;20030;-87
2022/03/04 03:20:28;;;;;;;22.40;10.85;;;-3.20;86.20;;;;;;4998037;28;20038;-87
2022/03/04 03:22:54;;;;;;;18.67;9.07;;;-3.30;87.10;;;;;;5000081;28;20033;-88
2022/03/04 03:25:20;;;;;;;23.02;9.45;;;-3.40;88.30;;;;;;5003657;28;20018;-87
2022/03/04 03:27:46;;;;;;;22.42;10.40;;;-3.50;88.10;;;;;;5001482;28;20030;-88
2022/03/04 03:30:12;;;;;;;24.92;9.55;;;-3.60;89.40;;;;;;5002260;28;20431;-87
2022/03/04 03:32:38;;;;;;;23.13;9.98;;;-3.50;89.50;;;;;;4993809;28;20486;-88
2022/03/04 03:35:07;;;;;;;23.05;9.77;;;-3.60;90.00;;;;;;5004899;28;20043;-84
2022/03/04 03:37:32;;;;;;;20.52;10.32;;;-3.60;89.90;;;;;;4995925;28;20092;-86
2022/03/04 03:39:58;;;;;;;14.95;7.60;;;-3.60;89.20;;;;;;4979882;28;20042;-87
2022/03/04 03:42:24;;;;;;;27.10;11.00;;;-3.60;89.20;;;;;;4990970;28;20117;-87
2022/03/04 03:44:49;;;;;;;25.98;9.93;;;-3.40;87.70;;;;;;5005200;28;20826;-88
2022/03/04 03:47:15;;;;;;;24.70;10.27;;;-3.50;88.40;;;;;;4991028;28;20030;-86
2022/03/04 03:49:41;;;;;;;24.67;10.10;;;-3.40;87.60;;;;;;5004599;28;20482;-86
2022/03/04 03:52:07;;;;;;;23.85;10.73;;;-3.50;87.90;;;;;;4995049;28;20042;-87
2022/03/04 03:54:33;;;;;;;22.67;10.75;;;-3.30;87.60;;;;;;5001663;28;20034;-87
2022/03/04 03:56:58;;;;;;;27.10;11.40;;;-3.30;87.30;;;;;;4996748;28;20050;-85
2022/03/04 03:59:24;;;;;;;24.27;8.85;;;-3.40;86.60;;;;;;4993888;28;20041;-88
2022/03/04 04:01:50;;;;;;;23.13;9.93;;;-3.40;86.80;;;;;;4982148;28;20594;-87
2022/03/04 04:04:17;;;;;;;25.45;9.93;;;-3.30;86.30;;;;;;4989427;28;20073;-90
2022/03/04 04:06:43;;;;;;;26.45;10.05;;;-3.50;87.40;;;;;;4989490;28;20058;-87
2022/03/04 04:09:09;;;;;;;24.02;10.40;;;-3.50;87.90;;;;;;4991539;28;20054;-84
2022/03/04 04:11:36;;;;;;;21.05;9.18;;;-3.60;88.20;;;;;;4992449;28;20036;-87
2022/03/04 04:14:04;;;;;;;20.40;10.00;;;-3.80;89.30;;;;;;4993098;28;20413;-88
2022/03/04 04:16:30;;;;;;;31.35;10.85;;;-4.00;89.80;;;;;;4993015;28;20027;-86
2022/03/04 04:18:56;;;;;;;27.08;8.57;;;-4.10;91.10;;;;;;4992463;28;20474;-86
2022/03/04 04:21:23;;;;;;;23.88;11.30;;;-4.10;91.70;;;;;;4990351;28;20026;-89
2022/03/04 04:23:48;;;;;;;28.80;11.15;;;-3.80;91.30;;;;;;4990423;28;20026;-88
2022/03/04 04:26:14;;;;;;;26.95;11.35;;;-3.90;90.80;;;;;;4991771;28;20089;-85
2022/03/04 04:28:40;;;;;;;31.13;11.85;;;-4.00;91.10;;;;;;4991548;28;20027;-87
2022/03/04 04:31:05;;;;;;;30.00;10.10;;;-4.10;91.60;;;;;;4992229;28;20034;-84
2022/03/04 04:33:31;;;;;;;24.95;11.07;;;-4.10;91.20;;;;;;4998316;28;20493;-86
2022/03/04 04:35:57;;;;;;;23.58;9.70;;;-3.90;91.00;;;;;;4994820;28;20044;-88
2022/03/04 04:38:23;;;;;;;24.58;10.82;;;-4.00;91.60;;;;;;5009495;28;20132;-85
2022/03/04 04:40:49;;;;;;;22.98;8.90;;;-4.00;91.40;;;;;;5002810;28;20540;-86
2022/03/04 04:43:14;;;;;;;23.15;10.60;;;-3.80;91.20;;;;;;5001624;28;20030;-88
2022/03/04 04:45:40;;;;;;;26.08;10.98;;;-3.80;90.80;;;;;;4998890;28;20470;-87
2022/03/04 04:48:06;;;;;;;27.27;10.23;;;-3.90;91.00;;;;;;4998353;28;20035;-86
2022/03/04 04:50:32;;;;;;;22.70;10.60;;;-4.00;91.80;;;;;;4991744;28;20334;-88
2022/03/04 04:52:58;;;;;;;27.50;13.35;;;-4.10;91.50;;;;;;5010379;28;20701;-86
2022/03/04 04:55:24;;;;;;;26.92;10.55;;;-3.90;90.90;;;;;;5007950;28;20062;-86
2022/03/04 04:57:49;;;;;;;23.10;11.13;;;-3.90;91.10;;;;;;5012103;28;20042;-85
2022/03/04 05:00:17;;;;;;;21.83;9.18;;;-3.90;91.20;;;;;;5003508;28;20201;-89
2022/03/04 05:02:44;;;;;;;22.17;11.50;;;-4.00;91.60;;;;;;4993526;28;20153;-88
2022/03/04 05:05:10;;;;;;;22.38;9.90;;;-4.10;92.30;;;;;;4999741;28;20462;-83
2022/03/04 05:07:36;;;;;;;30.17;10.90;;;-4.10;92.10;;;;;;5010889;28;20128;-86
2022/03/04 05:10:03;;;;;;;23.13;10.75;;;-4.00;91.60;;;;;;5001053;28;20030;-86
2022/03/04 05:12:29;;;;;;;22.92;12.00;;;-4.10;92.10;;;;;;4991765;28;20493;-87
2022/03/04 05:14:55;;;;;;;29.23;11.30;;;-4.00;92.00;;;;;;4996513;28;20062;-89
2022/03/04 05:17:21;;;;;;;29.67;10.80;;;-4.00;91.90;;;;;;4999212;28;20096;-87
2022/03/04 05:19:47;;;;;;;24.50;10.82;;;-4.00;91.70;;;;;;5000776;28;20042;-88
2022/03/04 05:22:13;;;;;;;22.05;10.13;;;-4.10;91.60;;;;;;5005479;28;20048;-87
2022/03/04 05:24:38;;;;;;;23.95;11.20;;;-4.10;92.10;;;;;;5001367;28;20026;-89
2022/03/04 05:27:04;;;;;;;24.70;11.73;;;-4.10;92.50;;;;;;4998206;28;20030;-87
2022/03/04 05:29:29;;;;;;;27.38;12.80;;;-4.20;92.20;;;;;;5007254;28;20138;-86
2022/03/04 05:31:55;;;;;;;28.27;10.38;;;-4.30;92.30;;;;;;4994359;28;20043;-86
2022/03/04 05:34:21;;;;;;;23.98;11.95;;;-4.30;93.30;;;;;;4991069;28;20038;-88
2022/03/04 05:36:47;;;;;;;21.88;11.07;;;-4.40;93.90;;;;;;5004001;28;20034;-86
2022/03/04 05:39:12;;;;;;;24.95;11.63;;;-4.20;93.70;;;;;;4992055;28;20482;-87
2022/03/04 05:41:38;;;;;;;21.83;10.27;;;-4.30;93.20;;;;;;4995406;28;20039;-87
2022/03/04 05:44:04;;;;;;;26.65;10.82;;;-4.40;93.70;;;;;;4997713;28;20034;-87
2022/03/04 05:46:31;;;;;;;30.42;13.57;;;-4.40;94.00;;;;;;4999585;28;20026;-88
2022/03/04 05:48:56;;;;;;;27.67;11.88;;;-4.40;93.80;;;;;;4993844;28;20101;-88
2022/03/04 05:51:22;;;;;;;24.88;11.75;;;-4.50;94.60;;;;;;4995582;28;20118;-88
2022/03/04 05:53:49;;;;;;;30.77;11.70;;;-4.50;94.60;;;;;;4995883;28;20033;-87
2022/03/04 05:56:15;;;;;;;28.55;11.38;;;-4.50;95.40;;;;;;5000253;28;20030;-86
2022/03/04 05:58:41;;;;;;;26.63;11.98;;;-4.50;95.90;;;;;;5003641;28;20092;-87
2022/03/04 06:01:06;;;;;;;25.60;11.75;;;-4.40;95.30;;;;;;4997360;28;20270;-88
2022/03/04 06:03:33;;;;;;;26.33;14.20;;;-4.40;94.90;;;;;;4995654;28;20042;-87
2022/03/04 06:05:59;;;;;;;27.50;10.77;;;-4.40;94.90;;;;;;4992014;28;20159;-86
2022/03/04 06:08:25;;;;;;;22.90;10.50;;;-4.50;95.10;;;;;;4993347;28;20105;-88
2022/03/04 06:10:50;;;;;;;28.50;12.65;;;-4.60;96.00;;;;;;4988472;28;20061;-86
2022/03/04 06:13:16;;;;;;;30.75;14.20;;;-4.50;95.90;;;;;;5007850;28;20486;-88
2022/03/04 06:15:42;;;;;;;32.20;12.68;;;-4.40;95.70;;;;;;4997994;28;20449;-85
2022/03/04 06:18:07;;;;;;;26.98;11.52;;;-4.40;95.70;;;;;;4995780;28;20597;-86
2022/03/04 06:20:33;;;;;;;17.20;7.88;;;-4.40;95.40;;;;;;4990606;28;20036;-83
2022/03/04 06:22:59;;;;;;;26.77;11.73;;;-4.30;95.50;;;;;;4993336;28;20464;-88
2022/03/04 06:25:25;;;;;;;24.40;12.32;;;-4.30;95.40;;;;;;5004592;28;20034;-85
2022/03/04 06:28:02;;;;;;;24.05;11.15;;;-4.20;95.10;;;;;;4995871;28;20074;-85
2022/03/04 06:30:31;;;;;;;25.52;10.13;;;-4.10;95.10;;;;;;4993726;28;20026;-86
2022/03/04 06:35:43;;;;;;;23.98;10.95;;;-3.80;94.10;;;;;;4984820;28;20057;-86
2022/03/04 06:38:09;;;;;;;24.63;11.73;;;-3.80;94.40;;;;;;4989904;28;20034;-85
2022/03/04 06:40:36;;;;;;;27.85;11.50;;;-3.70;93.70;;;;;;4988626;28;20165;-86
2022/03/04 06:43:02;;;;;;;25.80;12.27;;;-3.60;93.30;;;;;;4989034;28;20026;-86
2022/03/04 06:45:28;;;;;;;32.05;12.43;;;-3.70;93.10;;;;;;4990592;28;20113;-89
2022/03/04 06:47:53;;;;;;;27.17;11.98;;;-3.60;93.30;;;;;;4990740;28;20105;-86
2022/03/04 06:50:19;;;;;;;27.63;12.30;;;-3.70;93.10;;;;;;4985978;28;20066;-86
2022/03/04 06:52:45;;;;;;;29.90;12.25;;;-3.60;93.10;;;;;;4985280;28;20393;-86
2022/03/04 06:55:11;;;;;;;25.42;11.82;;;-3.60;93.00;;;;;;5004127;28;20062;-86
2022/03/04 06:57:39;;;;;;;29.05;11.40;;;-3.50;93.00;;;;;;4990395;28;20034;-85
2022/03/04 07:00:10;;;;;;;30.55;12.18;;;-3.40;93.10;;;;;;5005327;28;20401;-86
2022/03/04 07:02:37;;;;;;;25.17;10.73;;;-3.20;92.30;;;;;;5000168;28;20055;-85
2022/03/04 07:05:04;;;;;;;28.73;13.50;;;-3.10;92.10;;;;;;4988854;28;20061;-88
2022/03/04 07:07:30;;;;;;;23.73;11.93;;;-3.10;91.90;;;;;;4990789;28;20022;-90
2022/03/04 07:09:55;;;;;;;31.20;13.38;;;-3.20;91.90;;;;;;4990459;28;20022;-89
2022/03/04 07:12:21;;;;;;;21.80;11.68;;;-3.10;91.70;;;;;;4990265;28;20109;-87
2022/03/04 07:14:47;;;;;;;27.92;12.98;;;-3.10;92.00;;;;;;4986409;28;20045;-85
2022/03/04 07:17:13;;;;;;;27.88;12.95;;;-3.00;91.60;;;;;;4987995;28;20088;-85
2022/03/04 07:19:38;;;;;;;26.88;10.88;;;-3.10;91.80;;;;;;4988755;28;20105;-87
2022/03/04 07:22:04;;;;;;;31.30;12.48;;;-2.90;91.60;;;;;;4970678;28;20053;-87
2022/03/04 07:24:30;;;;;;;30.58;15.52;;;-2.90;91.60;;;;;;4988241;28;20106;-87
2022/03/04 07:26:56;;;;;;;29.88;11.15;;;-2.90;91.50;;;;;;4988290;28;20062;-89
2022/03/04 07:29:22;;;;;;;25.23;11.05;;;-2.80;91.10;;;;;;5002817;28;20035;-88
2022/03/04 07:31:48;;;;;;;32.17;12.63;;;-2.80;90.80;;;;;;4987890;28;20041;-86
2022/03/04 07:34:14;;;;;;;28.30;12.85;;;-2.70;90.70;;;;;;4988725;28;20037;-89
2022/03/04 07:36:39;;;;;;;32.60;14.20;;;-2.60;90.80;;;;;;4986956;28;20886;-87
2022/03/04 07:39:05;;;;;;;28.27;12.48;;;-2.50;90.90;;;;;;4987539;28;20030;-91
2022/03/04 07:41:31;;;;;;;27.83;11.93;;;-2.50;90.90;;;;;;4989537;28;20030;-86
2022/03/04 07:43:59;;;;;;;25.70;12.88;;;-2.50;90.80;;;;;;4984589;28;20039;-88
2022/03/04 07:46:25;;;;;;;30.63;15.43;;;-2.40;90.70;;;;;;4989455;28;20105;-88
2022/03/04 07:48:51;;;;;;;23.92;12.30;;;-2.20;92.00;;;;;;4989028;28;20062;-86
2022/03/04 07:51:17;;;;;;;32.17;13.23;;;-2.20;90.20;;;;;;4989295;28;20477;-88
2022/03/04 07:53:43;;;;;;;30.60;13.55;;;-2.20;90.60;;;;;;5000779;28;20418;-87
2022/03/04 07:56:10;;;;;;;30.75;12.20;;;-2.10;90.30;;;;;;4989742;28;20096;-87
2022/03/04 07:58:35;;;;;;;29.85;14.10;;;-2.00;89.80;;;;;;4989412;28;20093;-88
2022/03/04 08:01:01;;;;;;;26.52;13.07;;;-1.80;89.50;;;;;;4990484;28;20042;-87
2022/03/04 08:03:27;;;;;;;26.92;14.10;;;-1.60;89.50;;;;;;4994316;28;20125;-89
2022/03/04 08:05:52;;;;;;;28.70;14.93;;;-1.60;88.60;;;;;;5004921;28;20385;-87
2022/03/04 08:08:18;;;;;;;31.50;12.88;;;-1.40;90.10;;;;;;5002428;28;20034;-88
2022/03/04 08:10:43;;;;;;;32.83;13.02;;;-1.50;87.80;;;;;;4994442;28;20105;-88
2022/03/04 08:13:09;;;;;;;26.33;12.98;;;-1.40;88.80;;;;;;4995494;28;20061;-88
2022/03/04 08:15:35;;;;;;;26.75;13.63;;;-1.30;87.70;;;;;;5001587;28;20789;-87
2022/03/04 08:18:01;;;;;;;33.88;13.68;;;-1.10;87.00;;;;;;4989630;28;20034;-88
2022/03/04 08:20:26;;;;;;;28.58;11.90;;;-1.00;87.10;;;;;;4996008;28;20041;-89
2022/03/04 08:22:53;;;;;;;36.83;13.50;;;-0.80;86.30;;;;;;5001213;28;20026;-86
2022/03/04 08:25:19;;;;;;;40.17;16.05;;;-0.70;85.20;;;;;;4988028;28;20105;-86
2022/03/04 08:27:45;;;;;;;32.30;14.63;;;-0.70;86.10;;;;;;5003803;28;20034;-88
2022/03/04 08:30:12;;;;;;;37.00;14.23;;;-0.60;82.70;;;;;;4995002;28;20030;-85
2022/03/04 08:32:39;;;;;;;27.30;12.95;;;-0.50;83.00;;;;;;4987221;28;20034;-88
2022/03/04 08:35:05;;;;;;;34.70;14.20;;;-0.50;82.60;;;;;;4986285;28;20034;-86
2022/03/04 08:37:31;;;;;;;37.10;16.45;;;-0.30;81.30;;;;;;5003093;28;20509;-87
2022/03/04 08:39:57;;;;;;;30.73;12.27;;;-0.30;81.00;;;;;;4989108;28;20062;-87
2022/03/04 08:42:23;;;;;;;32.20;13.45;;;-0.10;79.60;;;;;;4988771;28;20034;-89
2022/03/04 08:44:49;;;;;;;28.85;13.52;;;0.00;78.00;;;;;;4989004;28;20531;-86
2022/03/04 08:47:15;;;;;;;31.17;14.88;;;0.20;77.30;;;;;;4987042;28;20038;-87
2022/03/04 08:49:40;;;;;;;27.02;13.05;;;0.30;76.90;;;;;;4988981;28;20146;-88
2022/03/04 08:52:06;;;;;;;32.22;13.70;;;0.30;75.60;;;;;;4988545;28;20038;-86
2022/03/04 08:54:32;;;;;;;28.02;13.65;;;0.30;75.90;;;;;;4990324;28;20070;-86
2022/03/04 08:56:58;;;;;;;33.97;11.82;;;0.40;75.30;;;;;;4991989;28;20041;-87
2022/03/04 08:59:23;;;;;;;34.75;15.90;;;0.50;74.40;;;;;;4989648;28;20030;-88
2022/03/04 09:01:49;;;;;;;28.77;11.90;;;0.60;73.50;;;;;;4991289;28;20666;-86
2022/03/04 09:04:17;;;;;;;32.08;13.90;;;0.80;72.60;;;;;;4992137;28;20057;-87
2022/03/04 09:06:43;;;;;;;30.48;14.10;;;0.90;72.60;;;;;;4992127;28;20023;-86
2022/03/04 09:09:09;;;;;;;29.27;11.48;;;1.10;70.40;;;;;;4986585;28;20030;-85
2022/03/04 09:11:35;;;;;;;25.63;13.80;;;1.20;69.90;;;;;;4989659;28;20025;-83
2022/03/04 09:14:02;;;;;;;26.85;13.90;;;1.10;69.90;;;;;;4991704;28;20665;-88
2022/03/04 09:16:29;;;;;;;28.70;12.88;;;1.30;69.30;;;;;;4991667;28;20031;-88
2022/03/04 09:18:55;;;;;;;30.13;12.93;;;1.40;67.90;;;;;;4989165;28;20038;-89
2022/03/04 09:21:21;;;;;;;26.83;13.20;;;1.60;67.20;;;;;;4990091;28;20387;-88
2022/03/04 09:23:46;;;;;;;30.60;13.13;;;1.80;65.30;;;;;;4987717;28;20449;-87
2022/03/04 09:26:12;;;;;;;28.33;13.90;;;1.80;65.90;;;;;;4989968;28;20041;-87
2022/03/04 09:28:38;;;;;;;34.67;13.68;;;1.90;64.30;;;;;;4991724;28;20026;-86
2022/03/04 09:31:04;;;;;;;28.33;13.98;;;2.00;64.40;;;;;;4996104;28;20046;-87
2022/03/04 09:33:29;;;;;;;25.42;11.85;;;2.20;63.10;;;;;;5003546;28;20038;-84
2022/03/04 09:35:55;;;;;;;30.48;13.25;;;2.20;63.10;;;;;;5001669;28;20069;-86
2022/03/04 09:38:21;;;;;;;26.55;11.70;;;2.10;61.30;;;;;;4991667;28;20086;-84
2022/03/04 09:40:50;;;;;;;30.88;14.52;;;2.00;61.10;;;;;;4993798;28;20034;-86
2022/03/04 09:43:19;;;;;;;25.48;12.35;;;2.10;61.30;;;;;;4994896;28;20066;-83
2022/03/04 09:45:46;;;;;;;27.45;13.52;;;2.40;60.30;;;;;;4995204;28;20488;-83
2022/03/04 09:48:13;;;;;;;30.60;14.80;;;2.40;59.70;;;;;;4998139;28;20030;-85
2022/03/04 09:50:39;;;;;;;22.45;10.88;;;2.50;59.50;;;;;;4993715;28;20030;-83
2022/03/04 09:53:09;;;;;;;33.58;15.40;;;2.70;58.30;;;;;;5005144;28;20477;-87
2022/03/04 09:55:35;;;;;;;;;;;2.60;58.00;;;;;;4998085;28;20077;-85
2022/03/04 09:58:01;;;;;;;26.02;12.68;;;2.60;57.10;;;;;;4997872;28;19917;-81
2022/03/04 10:00:27;;;;;;;28.02;13.70;;;2.60;58.50;;;;;;4995589;28;20261;-85
2022/03/04 10:02:53;;;;;;;25.95;12.15;;;2.90;58.00;;;;;;5006308;28;20046;-87
2022/03/04 10:05:18;;;;;;;30.00;12.88;;;3.00;55.80;;;;;;4996437;28;20393;-85
2022/03/04 10:07:47;;;;;;;29.33;13.25;;;3.10;56.80;;;;;;5000771;28;20039;-84
2022/03/04 10:10:15;;;;;;;29.88;13.60;;;3.20;56.00;;;;;;4976369;28;20042;-84
2022/03/04 10:12:57;;;;;;;25.05;12.90;;;3.10;55.70;;;;;;5001372;28;20031;-87
2022/03/04 10:15:26;;;;;;;27.60;13.63;;;3.10;55.90;;;;;;4992478;28;20088;-84
2022/03/04 10:18:03;;;;;;;25.98;14.00;;;3.00;57.10;;;;;;4989946;28;20060;-87
2022/03/04 10:20:33;;;;;;;27.80;13.52;;;3.10;56.40;;;;;;4989406;28;20038;-87
2022/03/04 10:23:19;;;;;;;28.23;12.50;;;3.20;54.50;;;;;;4997952;28;20113;-87
2022/03/04 10:25:51;;;;;;;28.70;12.73;;;3.30;54.40;;;;;;4993094;28;20422;-82
2022/03/04 10:28:17;;;;;;;29.73;13.82;;;3.50;54.80;;;;;;5001340;28;20026;-83
2022/03/04 10:30:46;;;;;;;27.08;12.13;;;3.60;54.20;;;;;;4992740;28;20052;-84
2022/03/04 10:33:18;;;;;;;26.65;13.27;;;3.50;53.50;;;;;;4997785;28;20386;-85
2022/03/04 10:35:45;;;;;;;27.55;14.23;;;3.60;53.50;;;;;;4993621;28;20386;-88
2022/03/04 10:38:22;;;;;;;27.33;12.35;;;3.50;53.00;;;;;;4997458;28;20460;-86
2022/03/04 10:40:49;;;;;;;25.17;12.60;;;3.50;52.80;;;;;;4998181;28;20026;-80
2022/03/04 10:43:23;;;;;;;33.58;12.65;;;3.50;53.50;;;;;;5000790;28;20246;-86
2022/03/04 10:45:59;;;;;;;22.90;13.70;;;3.60;53.20;;;;;;4998600;28;20031;-83
2022/03/04 10:48:25;;;;;;;21.33;9.02;;;3.90;52.90;;;;;;4999415;28;20451;-85
2022/03/04 10:50:53;;;;;;;33.17;14.05;;;3.90;50.50;;;;;;5005953;28;20038;-87
2022/03/04 10:53:29;;;;;;;28.80;14.82;;;4.00;50.30;;;;;;4997926;28;20041;-87
2022/03/04 10:56:02;;;;;;;24.33;13.77;;;4.10;49.20;;;;;;4991977;28;20033;-85
2022/03/04 10:58:36;;;;;;;29.98;12.52;;;4.10;51.20;;;;;;4998577;28;20554;-83
2022/03/04 11:01:08;;;;;;;24.38;11.85;;;4.20;49.60;;;;;;5000594;28;20074;-83
2022/03/04 11:03:35;;;;;;;24.25;13.00;;;4.10;47.80;;;;;;4996430;28;20061;-85
2022/03/04 11:06:22;;;;;;;33.63;12.38;;;4.10;47.60;;;;;;4992385;28;20100;-85
2022/03/04 11:08:47;;;;;;;22.90;11.10;;;4.20;46.90;;;;;;4997935;28;20367;-84
2022/03/04 11:11:13;;;;;;;26.25;13.20;;;4.30;47.00;;;;;;4998341;28;20042;-83
2022/03/04 11:13:39;;;;;;;23.52;11.75;;;4.50;47.40;;;;;;4996368;28;20038;-87
2022/03/04 11:16:07;;;;;;;24.45;11.88;;;4.50;47.40;;;;;;4993466;28;20030;-80
2022/03/04 11:18:34;;;;;;;26.48;12.40;;;4.70;46.40;;;;;;4998752;28;20037;-81
2022/03/04 11:21:01;;;;;;;27.77;13.50;;;4.70;44.80;;;;;;4999042;28;20568;-86
2022/03/04 11:23:32;;;;;;;28.52;13.60;;;4.50;46.20;;;;;;4995693;28;20053;-86
2022/03/04 11:26:00;;;;;;;21.27;11.95;;;4.70;47.10;;;;;;4988751;28;20038;-84
2022/03/04 11:28:35;;;;;;;29.75;13.75;;;4.90;46.20;;;;;;4994527;28;20053;-85
2022/03/04 11:31:06;;;;;;;25.25;12.43;;;5.10;45.00;;;;;;4994298;28;20042;-83
2022/03/04 11:33:52;;;;;;;26.10;12.93;;;5.40;45.30;;;;;;4987162;28;20026;-85
2022/03/04 11:36:39;;;;;;;25.17;14.68;;;5.40;44.10;;;;;;4995940;28;20049;-83
2022/03/04 11:39:10;;;;;;;26.92;11.90;;;5.20;44.20;;;;;;5000321;28;20034;-82
2022/03/04 11:42:06;;;;;;;32.67;13.98;;;5.40;44.80;;;;;;4997607;28;20061;-86
2022/03/04 11:44:31;;;;;;;25.63;12.82;;;5.20;43.90;;;;;;4993223;28;20477;-82
2022/03/04 11:47:02;;;;;;;23.27;13.18;;;5.50;44.40;;;;;;4993971;28;20052;-85
2022/03/04 11:49:31;;;;;;;25.65;13.20;;;5.50;44.60;;;;;;4994304;28;20058;-82
2022/03/04 11:52:11;;;;;;;25.08;11.55;;;5.90;42.90;;;;;;4996628;28;20037;-80
2022/03/04 11:54:44;;;;;;;26.60;13.25;;;6.20;41.60;;;;;;4995069;28;20049;-80
2022/03/04 11:57:21;;;;;;;28.27;13.05;;;6.50;40.90;;;;;;4993422;28;20029;-84
2022/03/04 11:59:50;;;;;;;28.08;14.38;;;6.90;40.70;;;;;;4993760;28;20027;-84
2022/03/04 12:02:21;;;;;;;25.02;13.35;;;7.30;40.30;;;;;;4997584;28;20494;-83
2022/03/04 12:04:49;;;;;;;23.08;12.60;;;7.30;38.00;;;;;;4992674;28;20030;-82
2022/03/04 12:07:15;;;;;;;29.10;14.75;;;7.80;38.50;;;;;;4996597;28;20081;-84
2022/03/04 12:09:49;;;;;;;23.58;13.18;;;8.10;36.90;;;;;;4998013;28;20054;-83
2022/03/04 12:12:21;;;;;;;25.92;13.55;;;8.00;37.40;;;;;;5000259;28;20498;-79
2022/03/04 12:14:54;;;;;;;22.23;11.82;;;8.90;34.60;;;;;;4995547;28;20038;-80
2022/03/04 12:17:21;;;;;;;23.00;14.02;;;9.20;34.40;;;;;;4998376;28;20038;-82
2022/03/04 12:19:49;;;;;;;23.45;13.40;;;9.40;34.10;;;;;;4992207;28;20029;-80
2022/03/04 12:22:16;;;;;;;22.75;14.20;;;9.60;34.10;;;;;;4998393;28;20028;-78
2022/03/04 12:24:54;;;;;;;30.77;14.00;;;8.80;33.50;;;;;;4996656;28;20299;-82
2022/03/04 12:27:41;;;;;;;23.90;13.13;;;8.50;36.90;;;;;;4995100;28;20462;-81
2022/03/04 12:30:33;;;;;;;24.10;13.95;;;9.50;34.70;;;;;;4996655;28;20176;-79
2022/03/04 12:32:59;;;;;;;22.45;12.93;;;9.80;33.50;;;;;;4995662;28;20260;-79